Zuebak Airstrip

AYZZ · Morobe, Papua-Neuguinea

METAR-Geschichte AYZZ · Zuebak Airstrip

Unten siehst du die METARs der letzten paar Tage. Wähle ein Jahr, um ältere METARs ab dem Jahr 2007 zu durchsuchen.

1. Dezember 2022

Uhrzeit Code Wetter Temp. Sichtweite Wolkendecke Wind METAR/SPECI
13:00
V
34 °C 10 km+ - 120° 120° 5 - 15 kt METAR AYNZ 010300Z 12005G15KT 9999 HZ SCT040 SCT060 34/22 Q1003 RMK
12:00
V
32 °C 10 km+ - 140° 140° 4 kt METAR AYNZ 010200Z 14004KT 9999 HZ SCT040 32/23 Q1004
11:00
V
30 °C 10 km+ - Var Var 3 kt METAR AYNZ 010100Z VRB03KT 9999 HZ FEW020 SCT040 30/24 Q1005
10:00
V
29 °C 10 km+ - Var Var 5 kt METAR AYNZ 010000Z VRB05KT 9999 HZ FEW015 SCT040 29/23 Q1006 RMK/LOW CLD IN AREA
09:00
V
26 °C 10 km+ - 200° 200° 7 kt METAR AYNZ 302300Z 20007KT 9999 HZ FEW010 SCT030 26/24 Q1007 RMK/LOW CLD IN AREA
08:00
V
26 °C 10 km+ - Var Var 4 kt METAR AYNZ 302200Z VRB04KT 9999 HZ FEW040 26/24 Q1007
07:00
V
25 °C 10 km+ - Var Var 3 kt METAR AYNZ 302100Z VRB03KT 9999 FEW040 25/22 Q1006
06:00
V
25 °C 10 km+ - 230° 230° 5 kt METAR AYNZ 302000Z 23005KT 9999 FEW040 25/22 Q1005

30. November 2022

Uhrzeit Code Wetter Temp. Sichtweite Wolkendecke Wind METAR/SPECI
19:00
V
28 °C 10 km+ - 360° 360° 10 - 15 kt METAR AYNZ 300900Z 36010G15KT 9999 SCT020 SCT050 28/24 Q1005
18:00
V
29 °C 10 km+ - 100° 100° 10 - 15 kt METAR AYNZ 300800Z 10010G15KT 9999 SCT020 SCT050 29/- Q1003
17:00
V
31 °C 10 km+ - 090° 090° 15 - 20 kt METAR AYNZ 300700Z 09015G20KT 9999 SCT020 SCT050 31/- Q1003
16:00
V
32 °C 10 km+ - 090° 090° 15 - 20 kt METAR AYNZ 300600Z 09015G20KT 9999 SCT020 SCT050 32/- Q1002
15:00
V
31 °C 10 km+ - 090° 090° 15 - 20 kt METAR AYNZ 300500Z 09015G20KT 9999 SCT020 SCT050 31/- Q1002
14:00
V
32 °C 10 km+ 5.000 ft 110° 110° 5 - 15 kt METAR AYNZ 300400Z 11005G15KT 9999 SCT020 BKN050 32/- Q1004
13:00
V
33 °C 10 km+ 5.000 ft 100° 100° 5 - 15 kt METAR AYNZ 300300Z 10005G15KT 9999 SCT020 BKN050 33/- Q1005=
12:00
V
32 °C 10 km+ - 070° 070° 5 - 10 kt METAR AYNZ 300200Z 07005G10KT 9999 FEW030 SCT050 32/24 Q1005=
10:00
V
30 °C 10 km+ - 230° 230° 7 kt METAR AYNZ 300000Z 23007KT 9999 FEW010 SCT050 30/24 Q1008
06:00
V
25 °C 10 km+ - Var Var 5 kt METAR AYNZ 292000Z VRB05KT 9999 SCT050 25/23 Q1007=

29. November 2022

Uhrzeit Code Wetter Temp. Sichtweite Wolkendecke Wind METAR/SPECI
18:00
V
29 °C 10 km+ - 080° 080° 10 - 15 kt METAR AYNZ 290800Z 08010G15KT 9999 SCT050 29/- Q1005
17:00
V
31 °C 10 km+ - 080° 080° 15 - 20 kt METAR AYNZ 290700Z 08015G20KT 9999 SCT050 31/- Q1003
16:00
V
31 °C 10 km+ 5.000 ft 090° 090° 15 - 20 kt METAR AYNZ 290600Z 09015G20KT 9999 BKN050 31/- Q1003=
15:00
V
33 °C 10 km+ 5.000 ft 090° 090° 5 - 15 kt METAR AYNZ 290500Z 09005G15KT 9999 BKN050 33/- Q1004 RMK
14:00
V
34 °C 10 km+ 5.000 ft 140° 140° 5 kt METAR AYNZ 290400Z 14005KT 9999 BKN050 34/- Q1004
13:00
V
35 °C 10 km+ 5.000 ft 240° 240° 5 - 10 kt METAR AYNZ 290300Z 24005G10KT 9999 BKN050 35/- Q1005=
12:00
V
33 °C 10 km+ - 210° 210° 5 - 10 kt METAR AYNZ 290200Z 21005G10KT 9999 SCT050 33/23 Q1006=
07:00
V
25 °C 10 km+ - Var Var 5 kt METAR AYNZ 282100Z VRB05KT 9999 FEW050 25/23 Q1009

Wir und Dritte verfolgen dein Internetverhalten auf unserer Website mit Cookies. Wenn du fortfährst, gehen wir davon aus, dass du mit unserer Cookie-Richtlinie einverstanden bist.